Time;durP1;ratioP1;P1;durP2;ratioP2;P2;SDS_P1;SDS_P2;PMS_P1;PMS_P2;Temp;Humidity;BMP_temperature;BMP_pressure;BME280_temperature;BME280_humidity;BME280_pressure;Samples;Min_cycle;Max_cycle;Signal;HPM_P1;HPM_P2
2023/04/14 00:00:25;;;;;;;0.70;0.70;;;4.70;99.90;;;;;;5034539;28;20210;-71
2023/04/14 00:02:51;;;;;;;0.40;0.40;;;4.70;99.90;;;;;;5035006;28;20405;-71
2023/04/14 00:05:17;;;;;;;0.40;0.40;;;4.60;99.90;;;;;;5035179;28;20645;-69
2023/04/14 00:07:42;;;;;;;1.80;0.80;;;4.60;99.90;;;;;;5035112;28;20901;-69
2023/04/14 00:10:08;;;;;;;0.40;0.40;;;4.50;99.90;;;;;;5034935;28;20425;-69
2023/04/14 00:12:34;;;;;;;0.60;0.60;;;4.40;99.90;;;;;;5034953;28;20181;-71
2023/04/14 00:15:00;;;;;;;0.80;0.80;;;4.20;99.90;;;;;;5035070;28;20178;-69
2023/04/14 00:17:26;;;;;;;0.40;0.40;;;4.20;99.90;;;;;;5034912;28;20402;-68
2023/04/14 00:19:52;;;;;;;0.70;0.70;;;4.20;99.90;;;;;;5034566;28;20996;-69
2023/04/14 00:22:17;;;;;;;0.60;0.60;;;4.00;99.90;;;;;;5034919;28;20179;-69
2023/04/14 00:24:43;;;;;;;0.50;0.50;;;3.90;99.90;;;;;;5034763;28;20167;-70
2023/04/14 00:27:09;;;;;;;0.60;0.60;;;3.80;99.90;;;;;;5034887;28;20230;-68
2023/04/14 00:29:38;;;;;;;0.55;0.55;;;3.80;99.90;;;;;;5034558;28;20936;-69
2023/04/14 00:32:04;;;;;;;0.40;0.40;;;3.80;99.90;;;;;;5034582;28;20225;-70
2023/04/14 00:34:30;;;;;;;0.40;0.40;;;3.70;99.90;;;;;;5034481;28;20167;-69
2023/04/14 00:36:56;;;;;;;6.33;1.47;;;3.60;99.90;;;;;;5034679;28;20175;-69
2023/04/14 00:39:21;;;;;;;0.73;0.73;;;3.60;99.90;;;;;;5034496;28;20194;-69
2023/04/14 00:41:47;;;;;;;0.50;0.50;;;3.50;99.90;;;;;;5034375;28;20198;-69
2023/04/14 00:44:13;;;;;;;0.40;0.40;;;3.50;99.90;;;;;;5034221;28;20660;-71
2023/04/14 00:46:42;;;;;;;0.50;0.50;;;3.50;99.90;;;;;;5034351;28;20568;-70
2023/04/14 00:49:08;;;;;;;21.17;2.90;;;3.40;99.90;;;;;;5034561;28;20179;-71
2023/04/14 00:51:34;;;;;;;0.40;0.40;;;3.50;99.90;;;;;;5034234;28;20579;-69
2023/04/14 00:54:06;;;;;;;0.40;0.40;;;3.50;99.90;;;;;;5033922;28;20402;-69
2023/04/14 00:56:32;;;;;;;0.40;0.40;;;3.40;99.90;;;;;;5034276;28;20722;-69
2023/04/14 00:59:00;;;;;;;2.15;0.70;;;3.40;99.90;;;;;;5034075;28;20203;-71
2023/04/14 01:01:30;;;;;;;0.60;0.60;;;3.40;99.90;;;;;;5034010;28;20207;-69
2023/04/14 01:03:57;;;;;;;0.45;0.45;;;3.40;99.90;;;;;;5034028;28;20634;-69
2023/04/14 01:06:22;;;;;;;0.40;0.40;;;3.30;99.90;;;;;;5034102;28;20214;-71
2023/04/14 01:08:49;;;;;;;0.40;0.40;;;3.40;99.90;;;;;;5033885;28;20686;-70
2023/04/14 01:11:30;;;;;;;1.63;1.13;;;3.40;99.90;;;;;;5033849;28;20634;-69
2023/04/14 01:14:08;;;;;;;0.40;0.40;;;3.40;99.90;;;;;;5034009;28;20179;-70
2023/04/14 01:16:39;;;;;;;0.93;0.93;;;3.30;99.90;;;;;;5033881;28;20167;-71
2023/04/14 01:19:22;;;;;;;1.35;1.25;;;3.30;99.90;;;;;;5033903;28;20201;-71
2023/04/14 01:21:53;;;;;;;0.40;0.40;;;3.30;99.90;;;;;;5033511;28;20206;-70
2023/04/14 01:24:39;;;;;;;0.68;0.68;;;3.40;99.90;;;;;;5033208;28;20179;-71
2023/04/14 01:27:32;;;;;;;0.63;0.63;;;3.40;99.90;;;;;;5033834;28;20653;-70
2023/04/14 01:30:07;;;;;;;0.40;0.40;;;3.30;99.90;;;;;;5033763;28;20191;-71
2023/04/14 01:32:35;;;;;;;0.45;0.45;;;3.30;99.90;;;;;;5033753;28;20253;-70
2023/04/14 01:35:12;;;;;;;0.60;0.60;;;3.30;99.90;;;;;;5033586;28;20189;-69
2023/04/14 01:37:45;;;;;;;0.98;0.95;;;3.40;99.90;;;;;;5033477;28;20224;-71
2023/04/14 01:40:17;;;;;;;0.70;0.57;;;3.40;99.90;;;;;;5033307;28;20626;-69
2023/04/14 01:42:55;;;;;;;2.05;1.33;;;3.30;99.90;;;;;;5033681;28;20517;-71
2023/04/14 01:45:27;;;;;;;0.40;0.40;;;3.20;99.90;;;;;;5033353;28;20171;-71
2023/04/14 01:47:54;;;;;;;0.50;0.50;;;3.20;99.90;;;;;;5015699;28;20173;-69
2023/04/14 01:50:22;;;;;;;0.40;0.40;;;3.20;99.90;;;;;;5033447;28;20182;-71
2023/04/14 01:52:53;;;;;;;0.60;0.60;;;3.20;99.90;;;;;;5033082;28;20562;-69
2023/04/14 01:55:19;;;;;;;0.50;0.50;;;3.20;99.90;;;;;;5033497;28;20264;-71
2023/04/14 01:57:48;;;;;;;1.15;0.60;;;3.20;99.90;;;;;;5033311;28;20506;-71
2023/04/14 02:00:17;;;;;;;0.95;0.95;;;3.20;99.90;;;;;;5033054;28;20198;-69
2023/04/14 02:02:45;;;;;;;0.38;0.38;;;3.30;99.90;;;;;;5033169;28;20171;-71
2023/04/14 02:05:12;;;;;;;1.17;1.17;;;3.40;99.90;;;;;;5033290;28;20240;-70
2023/04/14 02:07:39;;;;;;;0.40;0.40;;;3.40;99.90;;;;;;5033098;28;20190;-70
2023/04/14 02:10:08;;;;;;;0.70;0.70;;;3.30;99.90;;;;;;5033009;28;20199;-69
2023/04/14 02:12:36;;;;;;;0.43;0.43;;;3.30;99.90;;;;;;5033451;28;20646;-70
2023/04/14 02:15:02;;;;;;;0.50;0.50;;;3.30;99.90;;;;;;5015446;28;20240;-69
2023/04/14 02:17:29;;;;;;;0.38;0.38;;;3.30;99.90;;;;;;5033055;28;20167;-70
2023/04/14 02:19:56;;;;;;;0.40;0.40;;;3.20;99.90;;;;;;5032724;28;20268;-70
2023/04/14 02:22:22;;;;;;;2.47;1.90;;;3.20;99.90;;;;;;5033009;28;20173;-69
2023/04/14 02:24:48;;;;;;;0.40;0.40;;;3.00;99.90;;;;;;5015444;28;20178;-69
2023/04/14 02:27:21;;;;;;;0.50;0.50;;;2.90;99.90;;;;;;5033029;28;20167;-71
2023/04/14 02:29:52;;;;;;;0.40;0.40;;;2.90;99.90;;;;;;5032954;28;20190;-69
2023/04/14 02:32:23;;;;;;;0.68;0.68;;;2.80;99.90;;;;;;5033153;28;20163;-69
2023/04/14 02:34:59;;;;;;;0.40;0.40;;;2.90;99.90;;;;;;5033330;28;20171;-70
2023/04/14 02:37:30;;;;;;;0.40;0.40;;;2.90;99.90;;;;;;5036815;28;20193;-69
2023/04/14 02:40:02;;;;;;;0.47;0.47;;;2.90;99.90;;;;;;5036595;28;20298;-68
2023/04/14 02:42:31;;;;;;;0.60;0.60;;;2.80;99.90;;;;;;5036876;28;20530;-69
2023/04/14 02:45:04;;;;;;;0.40;0.40;;;2.70;99.90;;;;;;5036592;28;20250;-69
2023/04/14 02:47:33;;;;;;;0.40;0.40;;;2.60;99.90;;;;;;5036462;28;20183;-69
2023/04/14 02:50:01;;;;;;;1.05;0.65;;;2.60;99.90;;;;;;5036363;28;20194;-71
2023/04/14 02:52:30;;;;;;;0.70;0.70;;;2.60;99.90;;;;;;5036593;28;20599;-70
2023/04/14 02:54:57;;;;;;;0.50;0.50;;;2.60;99.90;;;;;;5036343;28;20171;-69
2023/04/14 02:57:24;;;;;;;0.77;0.77;;;2.50;99.90;;;;;;5036461;28;20531;-71
2023/04/14 02:59:51;;;;;;;1.13;1.13;;;2.60;99.90;;;;;;5036092;28;20190;-70
2023/04/14 03:02:17;;;;;;;1.35;0.88;;;2.50;99.90;;;;;;5036352;28;20543;-71
2023/04/14 03:04:43;;;;;;;0.77;0.77;;;2.50;99.90;;;;;;5036096;28;20170;-69
2023/04/14 03:07:11;;;;;;;0.50;0.50;;;2.60;99.90;;;;;;5036303;28;20174;-70
2023/04/14 03:09:39;;;;;;;0.40;0.40;;;2.50;99.90;;;;;;5036013;28;20189;-69
2023/04/14 03:12:06;;;;;;;0.30;0.30;;;2.50;99.90;;;;;;5036003;28;20225;-68
2023/04/14 03:14:34;;;;;;;1.85;1.75;;;2.50;99.90;;;;;;5035935;28;20508;-69
2023/04/14 03:17:01;;;;;;;0.68;0.60;;;2.60;99.90;;;;;;5036026;28;20184;-70
2023/04/14 03:19:28;;;;;;;1.15;1.15;;;2.60;99.90;;;;;;5018184;28;20559;-71
2023/04/14 03:21:58;;;;;;;0.30;0.30;;;2.50;99.90;;;;;;5036859;28;20676;-70
2023/04/14 03:24:29;;;;;;;0.40;0.40;;;2.50;99.90;;;;;;5035701;28;20177;-69
2023/04/14 03:27:01;;;;;;;0.40;0.40;;;2.50;99.90;;;;;;5036016;28;20659;-70
2023/04/14 03:29:31;;;;;;;0.30;0.30;;;2.50;99.90;;;;;;5035743;28;20270;-70
2023/04/14 03:32:00;;;;;;;0.40;0.40;;;2.30;99.90;;;;;;5035727;28;20232;-69
2023/04/14 03:34:29;;;;;;;0.40;0.40;;;2.30;99.90;;;;;;5035550;28;20169;-70
2023/04/14 03:36:57;;;;;;;0.32;0.32;;;2.30;99.90;;;;;;5035795;28;20197;-69
2023/04/14 03:39:26;;;;;;;0.93;0.93;;;2.40;99.90;;;;;;5017779;28;20208;-70
2023/04/14 03:41:54;;;;;;;0.30;0.30;;;2.40;99.90;;;;;;5035827;28;20259;-70
2023/04/14 03:44:22;;;;;;;2.88;2.75;;;2.40;99.90;;;;;;5017525;28;20181;-69
2023/04/14 03:46:48;;;;;;;0.40;0.40;;;2.40;99.90;;;;;;5035197;28;20535;-68
2023/04/14 03:49:15;;;;;;;0.70;0.53;;;2.40;99.90;;;;;;5035477;28;20193;-69
2023/04/14 03:51:46;;;;;;;0.60;0.60;;;2.50;99.90;;;;;;5035337;28;20182;-70
2023/04/14 03:54:15;;;;;;;0.47;0.47;;;2.50;99.90;;;;;;5035194;28;20178;-71
2023/04/14 03:56:44;;;;;;;0.50;0.50;;;2.60;99.90;;;;;;5035363;28;20173;-69
2023/04/14 03:59:14;;;;;;;0.30;0.30;;;2.70;99.90;;;;;;5035264;28;20193;-70
2023/04/14 04:01:41;;;;;;;0.30;0.30;;;2.70;99.90;;;;;;5035395;28;20665;-71
2023/04/14 04:04:07;;;;;;;0.55;0.55;;;2.70;99.90;;;;;;5034957;28;20561;-70
2023/04/14 04:06:35;;;;;;;0.63;0.63;;;2.70;99.90;;;;;;5035035;28;20192;-68
2023/04/14 04:09:01;;;;;;;0.40;0.40;;;2.80;99.90;;;;;;5034971;28;20187;-68
2023/04/14 04:11:28;;;;;;;0.57;0.57;;;3.00;99.90;;;;;;5035083;28;20167;-70
2023/04/14 04:13:55;;;;;;;0.40;0.40;;;3.00;99.90;;;;;;5034741;28;20167;-69
2023/04/14 04:16:23;;;;;;;0.40;0.40;;;3.00;99.90;;;;;;5035041;28;20182;-69
2023/04/14 04:18:50;;;;;;;0.55;0.55;;;3.10;99.90;;;;;;5034982;28;20590;-69
2023/04/14 04:21:18;;;;;;;0.40;0.40;;;3.10;99.90;;;;;;5034655;28;20305;-70
2023/04/14 04:23:47;;;;;;;2.95;1.25;;;3.10;99.90;;;;;;5034756;28;20182;-68
2023/04/14 04:26:13;;;;;;;1.85;1.75;;;3.20;99.90;;;;;;5034648;28;20642;-69
2023/04/14 04:28:40;;;;;;;0.30;0.30;;;3.20;99.90;;;;;;5034725;28;20240;-70
2023/04/14 04:31:09;;;;;;;0.60;0.60;;;3.30;99.90;;;;;;5034571;28;20440;-69
2023/04/14 04:33:35;;;;;;;0.40;0.40;;;3.30;99.90;;;;;;5034383;28;20182;-68
2023/04/14 04:36:01;;;;;;;0.38;0.38;;;3.30;99.90;;;;;;5034413;28;20166;-70
2023/04/14 04:38:27;;;;;;;0.80;0.80;;;3.30;99.90;;;;;;5034528;28;20203;-70
2023/04/14 04:40:53;;;;;;;0.50;0.50;;;3.40;99.90;;;;;;5034480;28;20190;-69
2023/04/14 04:43:19;;;;;;;0.77;0.77;;;3.40;99.90;;;;;;5034400;28;20575;-70
2023/04/14 04:45:56;;;;;;;0.40;0.40;;;3.40;99.90;;;;;;5034544;28;20751;-70
2023/04/14 04:48:22;;;;;;;0.50;0.50;;;3.30;99.90;;;;;;5034268;28;20187;-70
2023/04/14 04:50:48;;;;;;;0.70;0.70;;;3.40;99.90;;;;;;5034313;28;20254;-69
2023/04/14 04:53:13;;;;;;;4.10;1.23;;;3.40;99.90;;;;;;5034111;28;20507;-71
2023/04/14 04:55:42;;;;;;;1.80;1.70;;;3.60;99.90;;;;;;5034058;28;20189;-69
2023/04/14 04:58:08;;;;;;;0.40;0.40;;;3.60;99.90;;;;;;5033424;28;20175;-69
2023/04/14 05:00:34;;;;;;;0.60;0.60;;;3.60;99.90;;;;;;5034236;28;20200;-69
2023/04/14 05:03:00;;;;;;;0.40;0.40;;;3.60;99.90;;;;;;5033809;28;20401;-70
2023/04/14 05:05:26;;;;;;;0.40;0.40;;;3.70;99.90;;;;;;5033899;28;20171;-69
2023/04/14 05:07:51;;;;;;;1.83;1.73;;;3.70;99.90;;;;;;5033984;28;20583;-69
2023/04/14 05:10:17;;;;;;;0.40;0.40;;;3.80;99.90;;;;;;5015814;28;20186;-69
2023/04/14 05:12:42;;;;;;;0.40;0.40;;;3.90;99.90;;;;;;5033807;28;20171;-70
2023/04/14 05:15:08;;;;;;;0.50;0.50;;;3.90;99.90;;;;;;5033444;28;20178;-68
2023/04/14 05:17:35;;;;;;;0.40;0.40;;;4.00;99.90;;;;;;5033963;28;20606;-69
2023/04/14 05:20:02;;;;;;;0.40;0.40;;;4.10;99.90;;;;;;5033317;28;20261;-71
2023/04/14 05:22:28;;;;;;;1.35;1.25;;;4.20;99.90;;;;;;5034206;28;20163;-69
2023/04/14 05:24:54;;;;;;;1.13;1.13;;;4.30;99.90;;;;;;5034082;28;20258;-70
2023/04/14 05:27:20;;;;;;;0.50;0.50;;;4.50;99.90;;;;;;5034243;28;20229;-68
2023/04/14 05:29:46;;;;;;;0.40;0.40;;;4.60;99.70;;;;;;5033724;28;20190;-68
2023/04/14 05:32:13;;;;;;;1.13;1.13;;;4.70;99.50;;;;;;5015750;28;20583;-68
2023/04/14 05:34:39;;;;;;;0.80;0.80;;;4.80;99.70;;;;;;5033366;28;20159;-68
2023/04/14 05:37:05;;;;;;;0.40;0.40;;;5.00;99.90;;;;;;5033867;28;20520;-67
2023/04/14 05:39:31;;;;;;;0.40;0.40;;;5.30;99.90;;;;;;5033994;28;20183;-69
2023/04/14 05:41:58;;;;;;;4.67;2.10;;;5.40;99.00;;;;;;5034052;28;20449;-68
2023/04/14 05:44:24;;;;;;;0.40;0.40;;;5.90;99.00;;;;;;5033341;28;20174;-67
2023/04/14 05:46:50;;;;;;;0.80;0.77;;;6.60;98.60;;;;;;5033595;28;20174;-69
2023/04/14 05:49:15;;;;;;;1.27;1.27;;;7.40;97.40;;;;;;5032710;28;20434;-70
2023/04/14 05:51:41;;;;;;;1.37;1.27;;;8.20;96.30;;;;;;5033445;28;20245;-69
2023/04/14 05:54:07;;;;;;;0.80;0.60;;;9.30;94.00;;;;;;5032827;28;20225;-69
2023/04/14 05:56:32;;;;;;;0.70;0.70;;;10.80;91.50;;;;;;5033815;28;20186;-70
2023/04/14 05:58:58;;;;;;;1.47;1.47;;;12.20;88.20;;;;;;5033273;28;20265;-69
2023/04/14 06:01:24;;;;;;;2.03;0.80;;;12.90;80.10;;;;;;5032864;28;20202;-71
2023/04/14 06:03:49;;;;;;;0.93;0.93;;;13.10;78.40;;;;;;5033124;28;20217;-69
2023/04/14 06:06:16;;;;;;;0.30;0.30;;;13.20;75.90;;;;;;5033199;28;20232;-73
2023/04/14 06:08:41;;;;;;;2.60;2.40;;;13.20;77.20;;;;;;5033859;28;20191;-72
2023/04/14 06:11:07;;;;;;;0.97;0.97;;;13.20;82.60;;;;;;5037422;28;20410;-69
2023/04/14 06:13:33;;;;;;;2.20;1.03;;;13.30;80.10;;;;;;5036840;28;20166;-69
2023/04/14 06:15:59;;;;;;;1.73;1.20;;;13.20;78.90;;;;;;5037710;28;20174;-71
2023/04/14 06:18:25;;;;;;;1.20;1.10;;;13.20;77.70;;;;;;5036755;28;20444;-72
2023/04/14 06:20:51;;;;;;;1.27;0.60;;;12.60;73.40;;;;;;5036721;28;20457;-71
2023/04/14 06:23:18;;;;;;;0.83;0.80;;;12.10;76.50;;;;;;5037005;28;20402;-70
2023/04/14 06:25:44;;;;;;;5.27;1.57;;;11.70;76.90;;;;;;5036465;28;20413;-70
2023/04/14 06:28:10;;;;;;;0.50;0.50;;;11.40;77.90;;;;;;5037052;28;20463;-70
2023/04/14 06:30:36;;;;;;;1.33;0.57;;;10.80;79.30;;;;;;5036672;28;20413;-70
2023/04/14 06:33:03;;;;;;;0.70;0.70;;;10.50;81.40;;;;;;5036716;28;20685;-70
2023/04/14 06:35:30;;;;;;;0.73;0.73;;;10.40;81.10;;;;;;5037150;28;20505;-69
2023/04/14 06:37:56;;;;;;;0.60;0.60;;;10.10;81.90;;;;;;5037134;28;20401;-72
2023/04/14 06:40:21;;;;;;;0.50;0.50;;;9.80;84.10;;;;;;5037324;28;20506;-72
2023/04/14 06:42:47;;;;;;;0.30;0.30;;;9.40;85.70;;;;;;5019080;28;20213;-71
2023/04/14 06:45:13;;;;;;;0.40;0.40;;;9.30;87.40;;;;;;5036988;28;20178;-71
2023/04/14 06:47:39;;;;;;;0.60;0.60;;;9.40;87.80;;;;;;5018872;28;20175;-71
2023/04/14 06:50:05;;;;;;;0.40;0.40;;;9.60;88.80;;;;;;5036904;28;20436;-72
2023/04/14 06:52:32;;;;;;;2.67;1.63;;;10.00;86.00;;;;;;5018927;28;20186;-72
2023/04/14 06:54:58;;;;;;;2.47;2.30;;;10.10;84.90;;;;;;5037010;28;20493;-70
2023/04/14 06:57:25;;;;;;;11.47;3.10;;;10.10;86.00;;;;;;5036425;28;20493;-72
2023/04/14 06:59:51;;;;;;;6.13;2.15;;;10.20;85.90;;;;;;5036503;28;20219;-71
2023/04/14 07:02:17;;;;;;;0.70;0.70;;;10.40;86.20;;;;;;5036886;28;20564;-70
2023/04/14 07:04:42;;;;;;;2.93;2.00;;;10.50;86.90;;;;;;5036647;28;20409;-70
2023/04/14 07:07:08;;;;;;;0.50;0.50;;;10.80;86.60;;;;;;5036469;28;20167;-71
2023/04/14 07:09:33;;;;;;;0.97;0.87;;;10.90;85.70;;;;;;5036773;28;20235;-70
2023/04/14 07:12:00;;;;;;;1.23;0.63;;;11.50;84.00;;;;;;5036287;28;20167;-70
2023/04/14 07:14:25;;;;;;;0.77;0.77;;;12.50;82.40;;;;;;5035887;28;20167;-72
2023/04/14 07:16:52;;;;;;;0.60;0.60;;;14.10;77.70;;;;;;5036414;28;20547;-71
2023/04/14 07:19:17;;;;;;;0.40;0.40;;;15.40;74.00;;;;;;5036479;28;20206;-72
2023/04/14 07:21:44;;;;;;;0.77;0.77;;;16.50;67.10;;;;;;5036125;28;20912;-71
2023/04/14 07:24:10;;;;;;;3.23;0.60;;;17.10;62.80;;;;;;5035248;28;20404;-72
2023/04/14 07:26:36;;;;;;;0.83;0.60;;;18.00;59.40;;;;;;5035953;28;20398;-72
2023/04/14 07:29:01;;;;;;;1.33;0.97;;;19.00;56.80;;;;;;5036218;28;20606;-72
2023/04/14 07:31:28;;;;;;;5.00;2.10;;;20.00;54.50;;;;;;5035516;28;20206;-69
2023/04/14 07:33:53;;;;;;;1.27;1.13;;;20.90;51.10;;;;;;5035111;28;20665;-69
2023/04/14 07:36:19;;;;;;;0.87;0.50;;;21.20;48.30;;;;;;5036318;28;20406;-70
2023/04/14 07:38:45;;;;;;;0.50;0.50;;;20.40;48.30;;;;;;5035772;28;20187;-69
2023/04/14 07:41:11;;;;;;;1.17;1.00;;;18.90;49.90;;;;;;5035819;28;20195;-69
2023/04/14 07:43:38;;;;;;;1.80;0.60;;;17.70;52.40;;;;;;5035641;28;20450;-70
2023/04/14 07:46:06;;;;;;;0.40;0.40;;;17.20;54.00;;;;;;5035567;28;20237;-69
2023/04/14 07:48:33;;;;;;;0.80;0.80;;;16.10;54.80;;;;;;5017392;28;20435;-69
2023/04/14 07:50:59;;;;;;;0.40;0.40;;;15.50;56.60;;;;;;5035503;28;20409;-69
2023/04/14 07:53:25;;;;;;;0.50;0.50;;;15.20;57.50;;;;;;5035096;28;20415;-69
2023/04/14 07:55:51;;;;;;;0.33;0.33;;;16.20;56.40;;;;;;5035311;28;20217;-68
2023/04/14 07:58:16;;;;;;;0.40;0.40;;;17.60;52.70;;;;;;5035388;28;20184;-69
2023/04/14 08:00:42;;;;;;;0.50;0.50;;;19.50;50.80;;;;;;5035634;28;20201;-69
2023/04/14 08:03:08;;;;;;;0.60;0.50;;;20.90;47.80;;;;;;5017852;28;20175;-69
2023/04/14 08:05:34;;;;;;;0.60;0.60;;;21.80;46.00;;;;;;5034767;28;20643;-69
2023/04/14 08:08:00;;;;;;;0.30;0.30;;;22.50;45.50;;;;;;5034214;28;20410;-69
2023/04/14 08:10:26;;;;;;;0.40;0.40;;;23.30;42.60;;;;;;5034320;28;20401;-71
2023/04/14 08:12:51;;;;;;;1.13;1.03;;;23.50;42.20;;;;;;5035084;28;20179;-71
2023/04/14 08:15:17;;;;;;;0.40;0.40;;;23.70;41.30;;;;;;5017667;28;20178;-71
2023/04/14 08:17:43;;;;;;;0.50;0.50;;;25.00;40.00;;;;;;5034967;28;20243;-73
2023/04/14 08:20:09;;;;;;;0.40;0.40;;;25.40;36.80;;;;;;5035087;28;20543;-72
2023/04/14 08:22:35;;;;;;;0.30;0.30;;;24.80;36.70;;;;;;5035412;28;20167;-72
2023/04/14 08:25:01;;;;;;;5.30;2.70;;;24.30;35.70;;;;;;5034965;28;20401;-70
2023/04/14 08:27:27;;;;;;;0.70;0.70;;;22.80;36.30;;;;;;5035067;28;20904;-72
2023/04/14 08:29:53;;;;;;;1.57;0.77;;;21.60;39.10;;;;;;5034455;28;20198;-73
2023/04/14 08:32:19;;;;;;;0.40;0.40;;;21.50;39.50;;;;;;5034354;28;20167;-72
2023/04/14 08:34:45;;;;;;;0.50;0.50;;;22.10;37.20;;;;;;5034922;28;20489;-72
2023/04/14 08:37:10;;;;;;;8.47;0.50;;;23.00;36.20;;;;;;5034565;28;20170;-72
2023/04/14 08:39:36;;;;;;;0.50;0.50;;;23.10;36.40;;;;;;5034578;28;20289;-71
2023/04/14 08:42:02;;;;;;;0.40;0.40;;;23.00;35.80;;;;;;5035081;28;20224;-71
2023/04/14 08:44:28;;;;;;;0.50;0.47;;;23.40;36.70;;;;;;5034823;28;20496;-71
2023/04/14 08:46:54;;;;;;;0.90;0.50;;;23.20;34.50;;;;;;5034313;28;20555;-72
2023/04/14 08:49:43;;;;;;;0.40;0.40;;;22.60;35.30;;;;;;5036226;28;20434;-70
2023/04/14 08:52:12;;;;;;;0.80;0.70;;;21.20;34.20;;;;;;5034426;28;20387;-72
2023/04/14 08:54:42;;;;;;;0.30;0.30;;;20.10;34.50;;;;;;5034377;28;20412;-72
2023/04/14 08:57:10;;;;;;;0.30;0.30;;;19.30;36.70;;;;;;5034573;28;20753;-72
2023/04/14 08:59:37;;;;;;;0.40;0.40;;;18.30;37.70;;;;;;5033640;28;20433;-70
2023/04/14 09:02:06;;;;;;;0.40;0.40;;;17.20;38.80;;;;;;5034606;28;20770;-69
2023/04/14 09:04:34;;;;;;;0.60;0.60;;;16.20;40.20;;;;;;5033518;28;20417;-70
2023/04/14 09:07:01;;;;;;;0.40;0.40;;;15.70;41.50;;;;;;5033935;28;20416;-71
2023/04/14 09:09:29;;;;;;;0.40;0.40;;;15.40;41.80;;;;;;5033432;28;20440;-70
2023/04/14 09:11:56;;;;;;;0.40;0.40;;;15.30;43.50;;;;;;5034259;28;20406;-69
2023/04/14 09:14:22;;;;;;;0.30;0.30;;;15.10;43.00;;;;;;5033683;28;20504;-71
2023/04/14 09:16:52;;;;;;;2.00;0.53;;;14.60;43.40;;;;;;5033794;28;20410;-71
2023/04/14 09:19:22;;;;;;;0.50;0.50;;;14.20;44.40;;;;;;5033909;28;20433;-70
2023/04/14 09:21:48;;;;;;;3.90;0.67;;;14.80;47.30;;;;;;5034339;28;20469;-68
2023/04/14 09:24:22;;;;;;;0.40;0.40;;;16.10;44.90;;;;;;5033810;28;20407;-70
2023/04/14 09:26:51;;;;;;;0.30;0.30;;;16.50;44.00;;;;;;5033602;28;20260;-70
2023/04/14 09:29:17;;;;;;;0.50;0.50;;;16.40;43.80;;;;;;5033674;28;20428;-70
2023/04/14 09:31:46;;;;;;;0.30;0.30;;;16.20;44.40;;;;;;5033899;28;20763;-71
2023/04/14 09:34:19;;;;;;;0.40;0.40;;;16.20;44.70;;;;;;5033599;28;20242;-70
2023/04/14 09:37:05;;;;;;;0.40;0.40;;;16.40;43.20;;;;;;5032413;28;20415;-71
2023/04/14 09:39:32;;;;;;;1.00;1.00;;;16.50;42.40;;;;;;5031883;28;20980;-71
2023/04/14 09:42:00;;;;;;;0.30;0.30;;;16.40;42.60;;;;;;5033376;28;20457;-71
2023/04/14 09:44:26;;;;;;;0.30;0.30;;;16.90;41.00;;;;;;5032825;28;20409;-70
2023/04/14 09:47:06;;;;;;;0.40;0.40;;;17.60;41.30;;;;;;5033617;28;20408;-71
2023/04/14 09:49:32;;;;;;;0.40;0.40;;;17.90;41.80;;;;;;5015825;28;20202;-70
2023/04/14 09:52:16;;;;;;;0.40;0.40;;;18.10;40.50;;;;;;5033307;28;20413;-71
2023/04/14 09:54:42;;;;;;;0.30;0.30;;;17.70;39.50;;;;;;5033134;28;20944;-71
2023/04/14 09:57:07;;;;;;;0.70;0.70;;;17.00;40.10;;;;;;5032899;28;20437;-70
2023/04/14 09:59:37;;;;;;;0.30;0.30;;;16.20;39.90;;;;;;5033147;28;20198;-70
2023/04/14 10:02:08;;;;;;;0.30;0.30;;;15.40;42.10;;;;;;5032459;28;20252;-72
2023/04/14 10:04:35;;;;;;;0.73;0.73;;;14.90;43.20;;;;;;5031709;28;20411;-72
2023/04/14 10:07:05;;;;;;;0.40;0.40;;;14.60;44.60;;;;;;5032493;28;20403;-73
2023/04/14 10:09:36;;;;;;;0.40;0.40;;;14.30;44.90;;;;;;5031259;28;20862;-71
2023/04/14 10:12:20;;;;;;;0.40;0.40;;;14.30;46.60;;;;;;5030412;28;20448;-70
2023/04/14 10:14:46;;;;;;;0.43;0.43;;;14.20;47.40;;;;;;5031133;28;20417;-70
2023/04/14 10:17:16;;;;;;;0.60;0.40;;;14.20;46.20;;;;;;5032039;28;20412;-69
2023/04/14 10:19:42;;;;;;;0.40;0.40;;;14.10;47.10;;;;;;5032624;28;20432;-69
2023/04/14 10:22:08;;;;;;;0.40;0.40;;;13.60;46.20;;;;;;5032864;28;21028;-70
2023/04/14 10:24:34;;;;;;;0.50;0.50;;;13.40;47.40;;;;;;5015304;28;20510;-70
2023/04/14 10:27:01;;;;;;;0.40;0.40;;;13.20;47.80;;;;;;5033212;28;20418;-70
2023/04/14 10:29:28;;;;;;;2.23;0.50;;;12.90;48.50;;;;;;5032928;28;20457;-70
2023/04/14 10:32:15;;;;;;;0.30;0.30;;;12.80;48.60;;;;;;5033129;28;20410;-70
2023/04/14 10:34:56;;;;;;;1.47;1.07;;;12.90;48.90;;;;;;5031989;28;21117;-71
2023/04/14 10:37:22;;;;;;;0.50;0.50;;;13.10;47.20;;;;;;5031620;28;20420;-71
2023/04/14 10:39:58;;;;;;;0.87;0.67;;;13.30;47.60;;;;;;5032119;28;20449;-70
2023/04/14 10:42:24;;;;;;;0.40;0.40;;;13.40;47.00;;;;;;5032842;28;20174;-70
2023/04/14 10:45:06;;;;;;;0.30;0.30;;;13.30;48.00;;;;;;5032728;28;20398;-70
2023/04/14 10:47:34;;;;;;;0.40;0.40;;;13.10;47.20;;;;;;5032873;28;20171;-70
2023/04/14 10:50:11;;;;;;;0.40;0.40;;;13.00;46.20;;;;;;5032666;28;20429;-70
2023/04/14 10:52:37;;;;;;;0.73;0.73;;;12.70;46.60;;;;;;5014954;28;20496;-71
2023/04/14 10:55:07;;;;;;;0.50;0.50;;;12.70;47.10;;;;;;5032754;28;20408;-71
2023/04/14 10:57:41;;;;;;;0.60;0.60;;;12.60;48.40;;;;;;5035993;28;20405;-70
2023/04/14 11:00:23;;;;;;;0.40;0.40;;;12.70;48.30;;;;;;5035397;28;20426;-70
2023/04/14 11:03:10;;;;;;;0.40;0.40;;;12.60;48.30;;;;;;5035385;28;20409;-70
2023/04/14 11:05:41;;;;;;;1.00;1.00;;;12.30;49.50;;;;;;5035740;28;20909;-71
2023/04/14 11:08:35;;;;;;;0.70;0.70;;;12.20;50.00;;;;;;5035488;28;20778;-70
2023/04/14 11:13:37;;;;;;;0.60;0.60;;;12.10;50.40;;;;;;4974694;28;20495;-71
2023/04/14 11:16:05;;;;;;;0.50;0.50;;;12.00;50.50;;;;;;4976805;28;20474;-70
2023/04/14 11:18:44;;;;;;;0.40;0.40;;;12.00;51.40;;;;;;4976326;28;20231;-72
2023/04/14 11:21:13;;;;;;;0.30;0.30;;;12.00;51.40;;;;;;4976454;28;20474;-70
2023/04/14 11:23:39;;;;;;;0.80;0.67;;;12.00;50.70;;;;;;5081789;22;20494;-71
2023/04/14 11:26:10;;;;;;;0.40;0.40;;;12.10;50.90;;;;;;5017181;28;20440;-69
2023/04/14 11:34:33;;;;;;;0.40;0.40;;;12.40;49.40;;;;;;5030919;28;20528;-69
2023/04/14 11:37:02;;;;;;;1.33;1.23;;;12.50;49.70;;;;;;5023575;28;20956;-70
2023/04/14 11:39:28;;;;;;;0.40;0.40;;;12.50;48.70;;;;;;5018949;28;20428;-69
2023/04/14 11:41:55;;;;;;;1.50;1.50;;;12.40;48.20;;;;;;5030446;28;20551;-69
2023/04/14 11:44:21;;;;;;;0.70;0.70;;;12.50;48.40;;;;;;5024434;28;20544;-69
2023/04/14 11:46:48;;;;;;;0.50;0.47;;;12.50;48.20;;;;;;5021394;28;20501;-70
2023/04/14 11:49:14;;;;;;;0.40;0.40;;;12.50;47.60;;;;;;5031259;28;20191;-70
2023/04/14 11:51:40;;;;;;;1.57;0.90;;;12.60;47.90;;;;;;5033734;28;20824;-71
2023/04/14 11:54:05;;;;;;;1.53;0.87;;;12.80;50.40;;;;;;5015168;28;20410;-69
2023/04/14 11:56:31;;;;;;;0.77;0.70;;;13.10;48.10;;;;;;5015217;28;20172;-70
2023/04/14 11:59:04;;;;;;;0.83;0.83;;;13.20;47.00;;;;;;5017504;28;20175;-70
2023/04/14 12:01:31;;;;;;;0.50;0.50;;;12.80;46.00;;;;;;4995616;28;20214;-70
2023/04/14 12:03:57;;;;;;;3.07;0.87;;;12.60;46.60;;;;;;4996120;28;20808;-70
2023/04/14 12:06:26;;;;;;;0.40;0.40;;;12.40;47.20;;;;;;4978266;28;20975;-70
2023/04/14 12:08:52;;;;;;;0.57;0.57;;;12.50;47.20;;;;;;4995822;28;20409;-70
2023/04/14 12:11:18;;;;;;;0.70;0.70;;;12.80;48.40;;;;;;4995774;28;20770;-70
2023/04/14 12:13:46;;;;;;;0.60;0.43;;;13.00;47.70;;;;;;4996298;28;20404;-70
2023/04/14 12:16:13;;;;;;;1.30;1.30;;;12.90;48.00;;;;;;4995925;28;20439;-71
2023/04/14 12:18:39;;;;;;;0.90;0.80;;;13.10;47.90;;;;;;4995502;28;20416;-70
2023/04/14 12:21:05;;;;;;;2.33;0.63;;;13.30;46.60;;;;;;4995117;28;20465;-70
2023/04/14 12:23:35;;;;;;;0.40;0.40;;;13.50;47.50;;;;;;4995906;28;20407;-70
2023/04/14 12:26:02;;;;;;;0.40;0.40;;;13.60;47.50;;;;;;4995042;28;20846;-71
2023/04/14 12:28:28;;;;;;;0.40;0.40;;;13.70;45.80;;;;;;4977881;28;20505;-70
2023/04/14 12:31:02;;;;;;;0.50;0.50;;;13.50;45.50;;;;;;4995305;28;20414;-71
2023/04/14 12:33:30;;;;;;;0.43;0.43;;;13.30;44.80;;;;;;4995938;28;20414;-71
2023/04/14 12:36:06;;;;;;;1.07;0.93;;;13.20;45.70;;;;;;4995142;28;20456;-70
2023/04/14 12:38:33;;;;;;;0.50;0.50;;;13.20;45.50;;;;;;4994542;28;20776;-71
2023/04/14 12:40:59;;;;;;;2.57;1.13;;;13.30;44.90;;;;;;4994968;28;20516;-71
2023/04/14 12:43:33;;;;;;;0.83;0.57;;;13.40;43.10;;;;;;4995072;28;20412;-70
2023/04/14 12:46:01;;;;;;;0.40;0.40;;;13.20;43.50;;;;;;4995031;28;20755;-70
2023/04/14 12:48:43;;;;;;;1.17;0.73;;;13.10;43.10;;;;;;4995248;28;20831;-70
2023/04/14 12:51:14;;;;;;;0.40;0.40;;;13.20;43.80;;;;;;4994926;28;20443;-70
2023/04/14 12:53:46;;;;;;;0.50;0.50;;;13.20;42.90;;;;;;4995000;28;20473;-70
2023/04/14 12:56:14;;;;;;;0.30;0.30;;;12.80;43.30;;;;;;4994361;28;20431;-69
2023/04/14 12:58:42;;;;;;;0.40;0.40;;;12.70;44.00;;;;;;4994468;28;20416;-70
2023/04/14 13:01:10;;;;;;;0.70;0.53;;;12.50;44.50;;;;;;4993837;28;20459;-72
2023/04/14 13:03:43;;;;;;;0.53;0.53;;;12.60;44.10;;;;;;4994297;28;20998;-71